Flight Track Log - Related Links

Times and Time Zones

All times are in EDT time to prevent confusion due to time zone crossing. See the IBE6400 flight status page for this flight to view local times or setup timezone preferences in your user account.

Time Position Orientation Groundspeed Altitude Reporting Facility
EDT Latitude Longitude Course Direction KTS MPH feet Rate Location/Type
Wed 02:57:00 AM 40.7250 -2.1374 77° East  Level Estimated
Wed 02:58:00 AM 40.7452 -2.0069 78° East  Level Estimated
Wed 02:59:00 AM 40.7652 -1.8764 79° East  Level Estimated
Wed 03:00:00 AM 40.7850 -1.7458 79° East  Level Estimated
Wed 03:01:00 AM 40.8048 -1.6152 79° East  Level Estimated
Wed 03:02:00 AM 40.8243 -1.4844 79° East  Level Estimated
Wed 03:03:00 AM 40.8438 -1.3536 79° East  Level Estimated
Wed 03:04:00 AM 40.8630 -1.2227 79° East  Level Estimated
Wed 03:05:00 AM 40.8822 -1.0917 79° East  Level Estimated
Wed 03:06:00 AM 40.9012 -0.9607 79° East  Level Estimated
Wed 03:07:00 AM 40.9200 -0.8296 79° East  Level Estimated
Wed 03:08:00 AM 40.9387 -0.6984 79° East  Level Estimated
Wed 03:09:00 AM 40.9572 -0.5671 79° East  Level Estimated
Wed 03:10:00 AM 40.9756 -0.4358 79° East  Level Estimated
Wed 03:11:00 AM 40.9939 -0.3043 80° East  Level Estimated
Wed 03:12:00 AM 41.0119 -0.1728 80° East  Level Estimated
Wed 03:13:00 AM 41.0299 -0.0413 80° East  Level Estimated
Wed 03:14:00 AM 41.0477 0.0903 80° East  Level Estimated
Wed 03:15:00 AM 41.0653 0.2220 80° East  Level Estimated
Wed 03:16:00 AM 41.0828 0.3538 80° East  Level Estimated
Wed 03:17:00 AM 41.1001 0.4857 80° East  Level Estimated
Wed 03:18:00 AM 41.1173 0.6176 80° East  Level Estimated
Wed 03:19:00 AM 41.1344 0.7495 80° East  Level Estimated
Wed 03:20:00 AM 41.1513 0.8816 80° East  Level Estimated
Wed 03:21:00 AM 41.1680 1.0137 80° East  Level Estimated
Wed 03:22:00 AM 41.1846 1.1459 80° East  Level Estimated
Wed 03:23:00 AM 41.2010 1.2781 81° East  Level Estimated
Wed 03:24:00 AM 41.2173 1.4105 81° East  Level Estimated
Wed 03:25:00 AM 41.2334 1.5429 81° East  Level Estimated
Wed 03:26:00 AM 41.2494 1.6753 81° East  Level Estimated
Wed 03:27:00 AM 41.2652 1.8078 81° East  Level Estimated
Wed 03:28:00 AM 41.2809 1.9404 81° East  Level Estimated
Wed 03:29:00 AM 41.2965 2.0730 81° East  Level Estimated
Wed 03:30:00 AM 41.2971 2.0785 81° East  Level Estimated
Wed 03:31:00 AM 41.2971 2.0785 124° Southeast  Level Estimated
Wed 03:32:00 AM 41.2971 2.0785 124° Southeast  Level Estimated
Wed 03:33:00 AM 41.2971 2.0785 124° Southeast  Level Estimated
Wed 03:34:00 AM 41.2971 2.0785 124° Southeast  Level Estimated
Wed 03:35:00 AM 41.2971 2.0785 124° Southeast  Level Estimated
Wed 03:36:00 AM 41.2971 2.0785 124° Southeast  Level Estimated
Wed 03:37:00 AM 41.2971 2.0785 124° Southeast  Level Estimated
Wed 03:38:00 AM 41.2971 2.0785 124° Southeast  Level Estimated
Wed 03:39:00 AM 41.2971 2.0785 124° Southeast  Level Estimated
Wed 03:40:00 AM 41.2971 2.0785 124° Southeast  Level Estimated
Wed 03:41:00 AM 41.2971 2.0785 124° Southeast  Level Estimated
Wed 03:42:00 AM 41.2971 2.0785 124° Southeast  Level Estimated
Wed 03:43:00 AM 41.2971 2.0785 124° Southeast  Level Estimated
Wed 03:44:00 AM 41.2971 2.0785 124° Southeast  Level Estimated
Wed 03:45:00 AM 41.2971 2.0785 124° Southeast  Level Estimated

Login

Don't have an account? Register now (free) for customized features, flight alerts, and more!